Time;durP1;ratioP1;P1;durP2;ratioP2;P2;SDS_P1;SDS_P2;PMS_P1;PMS_P2;Temp;Humidity;BMP_temperature;BMP_pressure;BME280_temperature;BME280_humidity;BME280_pressure;Samples;Min_cycle;Max_cycle;Signal;HPM_P1;HPM_P2
2023/07/08 00:00:47;;;;;;;6.07;3.88;;;18.60;99.90;;;;;;4899837;29;20132;-84
2023/07/08 00:03:14;;;;;;;7.05;4.07;;;18.70;99.90;;;;;;4899616;29;20060;-84
2023/07/08 00:05:40;;;;;;;11.18;5.38;;;18.60;99.90;;;;;;4899629;29;20052;-83
2023/07/08 00:08:15;;;;;;;6.00;4.45;;;18.60;99.90;;;;;;4882376;29;20192;-84
2023/07/08 00:10:41;;;;;;;5.90;4.18;;;18.50;99.90;;;;;;4882419;29;20058;-84
2023/07/08 00:13:09;;;;;;;6.88;4.25;;;18.50;99.90;;;;;;4882293;29;20052;-84
2023/07/08 00:15:36;;;;;;;9.77;4.28;;;18.50;99.90;;;;;;4882529;29;20513;-84
2023/07/08 00:18:14;;;;;;;6.68;4.20;;;18.40;99.90;;;;;;4881439;29;20049;-84
2023/07/08 00:20:47;;;;;;;6.70;4.28;;;18.40;99.90;;;;;;4899373;29;20053;-84
2023/07/08 00:23:13;;;;;;;7.20;4.65;;;18.40;99.90;;;;;;4899620;29;20048;-84
2023/07/08 00:25:39;;;;;;;10.85;4.50;;;18.30;99.90;;;;;;4882240;29;20479;-84
2023/07/08 00:28:15;;;;;;;8.85;4.20;;;18.30;99.90;;;;;;4882296;29;20063;-84
2023/07/08 00:30:41;;;;;;;8.93;3.83;;;18.30;99.90;;;;;;4882276;29;20139;-84
2023/07/08 00:33:07;;;;;;;9.30;4.38;;;18.20;99.90;;;;;;4899428;29;20149;-84
2023/07/08 00:35:37;;;;;;;6.65;4.45;;;18.20;99.90;;;;;;4882233;29;20049;-84
2023/07/08 00:38:12;;;;;;;7.47;4.57;;;18.20;99.90;;;;;;4882131;29;20063;-82
2023/07/08 00:40:38;;;;;;;6.65;4.25;;;18.10;99.90;;;;;;4899319;29;20048;-83
2023/07/08 00:43:05;;;;;;;7.88;4.53;;;18.20;99.90;;;;;;4898957;29;20131;-84
2023/07/08 00:45:34;;;;;;;9.55;4.13;;;18.10;99.90;;;;;;4882437;29;20052;-84
2023/07/08 00:48:07;;;;;;;8.30;4.40;;;18.10;99.90;;;;;;4898888;29;20151;-84
2023/07/08 00:50:33;;;;;;;5.50;4.07;;;18.10;99.90;;;;;;4881644;29;20063;-83
2023/07/08 00:53:28;;;;;;;7.75;4.35;;;18.10;99.90;;;;;;4881783;29;20146;-84
2023/07/08 00:56:03;;;;;;;8.10;4.30;;;18.00;99.90;;;;;;4881373;29;20063;-85
2023/07/08 00:58:58;;;;;;;5.80;4.63;;;17.90;99.90;;;;;;4898779;29;20075;-85
2023/07/08 01:01:26;;;;;;;6.43;4.07;;;17.90;99.90;;;;;;4881822;29;20077;-85
2023/07/08 01:04:08;;;;;;;6.90;4.05;;;17.90;99.90;;;;;;4881107;29;20072;-84
2023/07/08 01:06:39;;;;;;;7.50;4.30;;;17.90;99.90;;;;;;4881939;29;20057;-84
2023/07/08 01:09:07;;;;;;;7.95;4.72;;;17.90;99.90;;;;;;4899619;29;20100;-84
2023/07/08 01:11:34;;;;;;;7.75;4.55;;;17.80;99.90;;;;;;4898700;29;20059;-84
2023/07/08 01:14:03;;;;;;;8.68;4.20;;;17.80;99.90;;;;;;4881463;29;20060;-84
2023/07/08 01:16:28;;;;;;;6.53;3.90;;;17.80;99.90;;;;;;4872039;29;20056;-84
2023/07/08 01:18:55;;;;;;;8.77;4.35;;;17.70;99.90;;;;;;4873548;29;20123;-85
2023/07/08 01:21:35;;;;;;;7.70;5.20;;;17.70;99.90;;;;;;4862705;29;20072;-84
2023/07/08 01:24:07;;;;;;;13.73;4.78;;;17.70;99.90;;;;;;4879448;29;20048;-84
2023/07/08 01:26:37;;;;;;;11.02;5.10;;;17.60;99.90;;;;;;4868021;29;20382;-85
2023/07/08 01:29:03;;;;;;;8.65;4.45;;;17.60;99.90;;;;;;4897779;29;20613;-84
2023/07/08 01:31:30;;;;;;;5.60;4.40;;;17.70;99.90;;;;;;4881445;29;20421;-84
2023/07/08 01:33:55;;;;;;;6.55;4.38;;;17.60;99.90;;;;;;4897758;29;20402;-84
2023/07/08 01:36:21;;;;;;;8.88;4.50;;;17.60;99.90;;;;;;4880905;29;20108;-84
2023/07/08 01:38:47;;;;;;;6.85;4.40;;;17.60;99.90;;;;;;4893383;29;20052;-84
2023/07/08 01:41:15;;;;;;;5.57;4.20;;;17.60;99.90;;;;;;4899569;29;20059;-84
2023/07/08 01:43:41;;;;;;;7.78;4.47;;;17.60;99.90;;;;;;4899386;29;20059;-84
2023/07/08 01:46:16;;;;;;;12.48;4.40;;;17.60;99.90;;;;;;4871368;29;20053;-84
2023/07/08 01:48:48;;;;;;;11.30;4.82;;;17.60;99.90;;;;;;4880827;29;20080;-84
2023/07/08 01:51:13;;;;;;;7.85;4.55;;;17.50;99.90;;;;;;4865331;29;20059;-83
2023/07/08 01:53:41;;;;;;;10.23;4.32;;;17.40;99.90;;;;;;4880653;29;20056;-84
2023/07/08 01:56:08;;;;;;;10.68;4.70;;;17.40;99.90;;;;;;4880572;29;20791;-83
2023/07/08 01:58:34;;;;;;;5.68;4.55;;;17.40;99.90;;;;;;4897731;29;20092;-84
2023/07/08 02:01:01;;;;;;;8.18;4.18;;;17.40;99.90;;;;;;4880571;29;20091;-84
2023/07/08 02:03:27;;;;;;;7.18;5.03;;;17.40;99.90;;;;;;4880339;29;20060;-84
2023/07/08 02:05:54;;;;;;;8.10;5.00;;;17.40;99.90;;;;;;4880695;29;20656;-83
2023/07/08 02:08:19;;;;;;;8.23;5.13;;;17.30;99.90;;;;;;4880632;29;20444;-84
2023/07/08 02:10:54;;;;;;;9.43;4.90;;;17.30;99.90;;;;;;4880300;29;20048;-83
2023/07/08 02:13:21;;;;;;;9.45;4.78;;;17.30;99.90;;;;;;4880517;29;20052;-84
2023/07/08 02:15:47;;;;;;;11.40;5.25;;;17.30;99.90;;;;;;4880524;29;20088;-84
2023/07/08 02:18:13;;;;;;;10.68;5.78;;;17.20;99.90;;;;;;4880122;29;20088;-83
2023/07/08 02:20:38;;;;;;;9.93;6.13;;;17.20;99.90;;;;;;4897231;29;20092;-84
2023/07/08 02:23:04;;;;;;;9.88;6.75;;;17.20;99.90;;;;;;4880734;29;20068;-84
2023/07/08 02:25:30;;;;;;;12.50;7.63;;;17.20;99.90;;;;;;4879934;29;20064;-84
2023/07/08 02:27:57;;;;;;;14.00;7.95;;;17.20;99.90;;;;;;4880273;29;20052;-84
2023/07/08 02:30:26;;;;;;;9.77;7.53;;;17.20;99.90;;;;;;4880225;29;20059;-84
2023/07/08 02:32:58;;;;;;;11.85;6.95;;;17.20;99.90;;;;;;4880433;29;20503;-84
2023/07/08 02:35:29;;;;;;;13.35;7.57;;;17.20;99.90;;;;;;4879997;29;20056;-84
2023/07/08 02:37:57;;;;;;;10.35;7.93;;;17.10;99.90;;;;;;4897099;29;20191;-85
2023/07/08 02:40:23;;;;;;;12.70;8.50;;;17.10;99.90;;;;;;4898285;29;20588;-84
2023/07/08 02:42:49;;;;;;;10.32;7.72;;;17.20;99.90;;;;;;4901173;29;20060;-85
2023/07/08 02:45:16;;;;;;;11.48;7.55;;;17.10;99.90;;;;;;4900833;29;20510;-84
2023/07/08 02:47:42;;;;;;;12.23;8.15;;;17.20;99.90;;;;;;4884566;29;20052;-85
2023/07/08 02:50:09;;;;;;;11.75;8.63;;;17.10;99.90;;;;;;4901084;29;20048;-84
2023/07/08 02:52:35;;;;;;;13.48;9.38;;;17.10;99.90;;;;;;4884099;29;20146;-84
2023/07/08 02:55:01;;;;;;;12.45;9.27;;;17.10;99.90;;;;;;4883593;29;20523;-84
2023/07/08 02:57:27;;;;;;;13.57;8.93;;;17.10;99.90;;;;;;4883776;29;20112;-84
2023/07/08 02:59:52;;;;;;;12.52;8.77;;;17.00;99.90;;;;;;4884164;29;20057;-85
2023/07/08 03:02:18;;;;;;;13.25;9.75;;;17.00;99.90;;;;;;4883842;29;20063;-83
2023/07/08 03:04:44;;;;;;;13.85;9.75;;;16.90;99.90;;;;;;4900705;29;20055;-83
2023/07/08 03:07:11;;;;;;;13.98;9.15;;;16.90;99.90;;;;;;4883298;29;20056;-83
2023/07/08 03:09:41;;;;;;;16.27;9.20;;;17.00;99.90;;;;;;4900603;29;20210;-84
2023/07/08 03:12:08;;;;;;;11.55;8.73;;;17.00;99.90;;;;;;4883408;29;20128;-84
2023/07/08 03:14:34;;;;;;;16.65;9.57;;;16.90;99.90;;;;;;4883252;29;20093;-83
2023/07/08 03:17:00;;;;;;;12.15;8.55;;;16.90;99.90;;;;;;4883315;29;20450;-84
2023/07/08 03:19:25;;;;;;;10.88;7.75;;;16.90;99.90;;;;;;4867687;29;20466;-84
2023/07/08 03:21:52;;;;;;;18.52;10.23;;;16.90;99.90;;;;;;4900237;29;20053;-84
2023/07/08 03:24:18;;;;;;;15.05;9.23;;;16.90;99.90;;;;;;4900183;29;20112;-84
2023/07/08 03:26:44;;;;;;;10.98;8.05;;;16.80;99.90;;;;;;4882357;29;20048;-85
2023/07/08 03:29:15;;;;;;;15.77;9.23;;;16.80;99.90;;;;;;4882375;29;20060;-84
2023/07/08 03:31:40;;;;;;;13.25;8.13;;;16.80;99.90;;;;;;4883389;29;20052;-84
2023/07/08 03:34:10;;;;;;;14.88;7.63;;;16.80;99.90;;;;;;4900135;29;20063;-85
2023/07/08 03:36:40;;;;;;;11.20;8.00;;;16.80;99.90;;;;;;4882713;29;20579;-84
2023/07/08 03:39:06;;;;;;;16.15;8.68;;;16.80;99.90;;;;;;4900457;29;20053;-84
2023/07/08 03:41:31;;;;;;;11.80;8.07;;;16.80;99.90;;;;;;4900103;29;20056;-84
2023/07/08 03:43:57;;;;;;;13.18;8.35;;;16.70;99.90;;;;;;4899851;29;20128;-85
2023/07/08 03:46:23;;;;;;;10.23;8.05;;;16.70;99.90;;;;;;4899912;29;20056;-84
2023/07/08 03:48:49;;;;;;;13.77;8.32;;;16.70;99.90;;;;;;4883139;29;20424;-85
2023/07/08 03:51:27;;;;;;;15.00;8.93;;;16.70;99.90;;;;;;4882234;29;20053;-84
2023/07/08 03:53:53;;;;;;;14.35;8.32;;;16.70;99.90;;;;;;4882709;29;20081;-82
2023/07/08 03:56:19;;;;;;;15.98;9.00;;;16.80;99.90;;;;;;4882608;29;20277;-84
2023/07/08 03:58:45;;;;;;;15.15;9.02;;;16.80;99.90;;;;;;4899439;29;20080;-84
2023/07/08 04:01:16;;;;;;;11.23;7.57;;;16.80;99.90;;;;;;4882904;29;20088;-84
2023/07/08 04:03:42;;;;;;;11.38;8.25;;;16.80;99.90;;;;;;4882749;29;20053;-84
2023/07/08 04:06:08;;;;;;;10.18;7.28;;;16.90;99.90;;;;;;4899025;29;20457;-84
2023/07/08 04:08:33;;;;;;;10.70;7.20;;;16.90;99.90;;;;;;4899437;29;20055;-83
2023/07/08 04:10:59;;;;;;;13.85;7.32;;;17.00;99.90;;;;;;4882454;29;20132;-83
2023/07/08 04:13:25;;;;;;;10.25;6.65;;;17.00;99.90;;;;;;4881947;29;20127;-84
2023/07/08 04:15:56;;;;;;;10.50;6.65;;;17.10;99.90;;;;;;4882223;29;20056;-84
2023/07/08 04:18:22;;;;;;;11.48;6.88;;;17.20;99.90;;;;;;4866746;29;20606;-84
2023/07/08 04:20:52;;;;;;;12.55;6.13;;;17.20;99.90;;;;;;4882438;29;20123;-85
2023/07/08 04:23:22;;;;;;;10.52;6.22;;;17.30;99.90;;;;;;4899093;29;20048;-84
2023/07/08 04:25:54;;;;;;;14.50;6.22;;;17.40;99.90;;;;;;4899289;29;20135;-84
2023/07/08 04:28:20;;;;;;;10.82;6.15;;;17.40;99.90;;;;;;4882233;29;20059;-84
2023/07/08 04:30:47;;;;;;;12.10;5.70;;;17.40;99.90;;;;;;4899289;29;20131;-84
2023/07/08 04:33:15;;;;;;;11.98;6.45;;;17.50;99.90;;;;;;4882369;29;20056;-85
2023/07/08 04:35:41;;;;;;;7.03;5.30;;;17.60;99.90;;;;;;4882402;29;20441;-84
2023/07/08 04:38:21;;;;;;;9.05;5.88;;;17.60;99.90;;;;;;4881968;29;20084;-84
2023/07/08 04:40:53;;;;;;;10.15;5.88;;;17.70;99.90;;;;;;4898813;29;20101;-82
2023/07/08 04:43:20;;;;;;;9.15;5.25;;;17.70;99.90;;;;;;4898109;29;20056;-83
2023/07/08 04:45:52;;;;;;;11.55;6.18;;;17.80;99.90;;;;;;4881957;29;20076;-83
2023/07/08 04:48:20;;;;;;;9.10;5.80;;;17.80;99.90;;;;;;4881868;29;20410;-83
2023/07/08 04:50:48;;;;;;;11.05;5.82;;;17.90;99.90;;;;;;4881768;29;20617;-83
2023/07/08 04:53:14;;;;;;;11.07;5.75;;;18.10;99.90;;;;;;4882154;29;20056;-83
2023/07/08 04:55:44;;;;;;;7.90;5.43;;;18.10;99.90;;;;;;4898331;29;20193;-83
2023/07/08 04:58:09;;;;;;;10.40;6.05;;;18.30;99.90;;;;;;4898282;29;20057;-83
2023/07/08 05:00:35;;;;;;;10.68;5.82;;;18.40;99.90;;;;;;4881935;29;20055;-82
2023/07/08 05:03:01;;;;;;;12.95;5.53;;;18.50;99.90;;;;;;4894074;29;20527;-83
2023/07/08 05:05:26;;;;;;;9.48;5.80;;;18.60;99.90;;;;;;4865976;29;20383;-83
2023/07/08 05:07:52;;;;;;;8.75;5.88;;;18.60;99.90;;;;;;4874085;29;20489;-83
2023/07/08 05:10:19;;;;;;;9.13;5.38;;;18.70;99.90;;;;;;4862888;29;20140;-82
2023/07/08 05:12:46;;;;;;;8.60;5.10;;;18.90;99.90;;;;;;4862988;29;20045;-82
2023/07/08 05:15:12;;;;;;;7.35;5.43;;;19.00;99.90;;;;;;4862264;29;20057;-82
2023/07/08 05:17:39;;;;;;;11.70;5.55;;;19.10;99.90;;;;;;4862076;29;20064;-83
2023/07/08 05:20:07;;;;;;;11.07;5.47;;;19.10;99.90;;;;;;4887940;29;20109;-83
2023/07/08 05:22:33;;;;;;;10.05;4.97;;;19.30;99.90;;;;;;4880875;29;20116;-83
2023/07/08 05:24:59;;;;;;;10.00;5.93;;;19.40;99.90;;;;;;4897731;29;20052;-83
2023/07/08 05:27:25;;;;;;;8.90;5.15;;;19.40;99.90;;;;;;4898171;29;20433;-84
2023/07/08 05:29:51;;;;;;;7.65;4.95;;;19.50;99.90;;;;;;4898158;29;20060;-84
2023/07/08 05:32:17;;;;;;;7.38;4.78;;;19.60;99.90;;;;;;4898031;29;20116;-83
2023/07/08 05:34:44;;;;;;;9.15;5.32;;;19.70;99.90;;;;;;4881221;29;20409;-83
2023/07/08 05:37:10;;;;;;;7.07;4.53;;;19.80;99.90;;;;;;4871005;29;20478;-84
2023/07/08 05:39:36;;;;;;;7.28;4.47;;;19.80;99.90;;;;;;4862141;29;20057;-83
2023/07/08 05:42:02;;;;;;;10.10;4.68;;;19.90;99.90;;;;;;4862463;29;20466;-84
2023/07/08 05:44:28;;;;;;;7.53;4.28;;;19.90;99.90;;;;;;4862621;29;20053;-84
2023/07/08 05:46:53;;;;;;;7.53;4.45;;;20.10;99.90;;;;;;4879803;29;20060;-84
2023/07/08 05:49:19;;;;;;;7.28;4.53;;;20.10;99.90;;;;;;4878973;29;20060;-85
2023/07/08 05:51:47;;;;;;;6.82;4.35;;;20.10;99.90;;;;;;4879322;29;20063;-84
2023/07/08 05:54:14;;;;;;;6.88;4.45;;;20.20;99.90;;;;;;4862018;29;20061;-84
2023/07/08 05:56:40;;;;;;;6.82;4.30;;;20.30;99.90;;;;;;4861921;29;20064;-84
2023/07/08 05:59:06;;;;;;;6.20;4.20;;;20.30;99.90;;;;;;4862039;29;20076;-85
2023/07/08 06:01:32;;;;;;;5.78;4.45;;;20.30;99.90;;;;;;4861961;29;20053;-84
2023/07/08 06:03:59;;;;;;;7.95;4.45;;;20.30;99.90;;;;;;4878453;29;20053;-84
2023/07/08 06:06:26;;;;;;;9.60;4.20;;;20.50;99.90;;;;;;4862043;29;20498;-84
2023/07/08 06:08:52;;;;;;;6.90;4.43;;;20.50;99.90;;;;;;4878416;29;20060;-84
2023/07/08 06:11:18;;;;;;;5.45;3.90;;;20.50;99.90;;;;;;4878602;29;20468;-84
2023/07/08 06:13:44;;;;;;;5.93;4.15;;;20.60;99.90;;;;;;4878696;29;20156;-84
2023/07/08 06:16:10;;;;;;;8.50;3.80;;;20.70;99.90;;;;;;4861230;29;20481;-85
2023/07/08 06:18:36;;;;;;;5.00;3.17;;;20.70;99.90;;;;;;4878584;29;20134;-85
2023/07/08 06:21:01;;;;;;;7.13;3.80;;;20.80;99.90;;;;;;4861553;29;20061;-78
2023/07/08 06:23:28;;;;;;;5.35;3.90;;;20.90;99.90;;;;;;4867695;29;20622;-78
2023/07/08 06:25:54;;;;;;;6.28;3.90;;;20.70;99.90;;;;;;4879460;29;20067;-78
2023/07/08 06:28:21;;;;;;;6.22;3.85;;;20.80;99.90;;;;;;4879986;29;20139;-78
2023/07/08 06:30:47;;;;;;;6.28;3.97;;;20.70;99.90;;;;;;4879152;29;20073;-78
2023/07/08 06:33:13;;;;;;;7.28;3.85;;;20.70;99.90;;;;;;4902307;29;20076;-79
2023/07/08 06:35:39;;;;;;;5.45;3.90;;;20.70;99.90;;;;;;4891524;29;20045;-78
2023/07/08 06:38:06;;;;;;;5.85;3.45;;;20.70;99.90;;;;;;4884286;29;20052;-79
2023/07/08 06:40:32;;;;;;;7.63;4.18;;;20.80;99.90;;;;;;4901260;29;20184;-79
2023/07/08 06:42:58;;;;;;;7.13;3.95;;;20.80;99.90;;;;;;4884473;29;20124;-79
2023/07/08 06:45:24;;;;;;;6.22;3.58;;;21.00;99.90;;;;;;4883133;29;20060;-79
2023/07/08 06:47:49;;;;;;;6.07;4.07;;;21.00;99.90;;;;;;4896768;29;20055;-79
2023/07/08 06:50:15;;;;;;;4.50;3.70;;;21.00;99.90;;;;;;4879749;29;20057;-79
2023/07/08 06:52:41;;;;;;;5.88;3.65;;;21.10;99.90;;;;;;4879393;29;20057;-79
2023/07/08 06:55:09;;;;;;;5.00;3.67;;;21.20;99.90;;;;;;4879586;29;20098;-78
2023/07/08 06:57:35;;;;;;;6.50;2.92;;;21.20;99.90;;;;;;4879761;29;20087;-78
2023/07/08 07:00:02;;;;;;;6.07;3.50;;;21.30;99.90;;;;;;4896107;29;20067;-78
2023/07/08 07:02:28;;;;;;;9.43;4.13;;;21.40;99.90;;;;;;4896197;29;20497;-79
2023/07/08 07:04:55;;;;;;;5.07;3.20;;;21.60;99.90;;;;;;4879264;29;20112;-78
2023/07/08 07:07:21;;;;;;;5.65;3.30;;;21.60;99.90;;;;;;4879419;29;20060;-79
2023/07/08 07:09:46;;;;;;;10.15;3.97;;;21.60;99.90;;;;;;4879294;29;20064;-78
2023/07/08 07:12:12;;;;;;;5.55;3.30;;;21.70;99.90;;;;;;4896037;29;20052;-77
2023/07/08 07:14:38;;;;;;;9.10;3.83;;;21.80;99.90;;;;;;4878906;29;20060;-77
2023/07/08 07:17:04;;;;;;;8.10;4.10;;;21.90;99.90;;;;;;4879410;29;20056;-77
2023/07/08 07:19:29;;;;;;;8.32;4.78;;;21.90;99.90;;;;;;4878741;29;20099;-79
2023/07/08 07:21:55;;;;;;;9.38;3.40;;;22.10;99.90;;;;;;4878964;29;20076;-78
2023/07/08 07:24:21;;;;;;;5.57;3.85;;;22.20;99.90;;;;;;4879373;29;20061;-78
2023/07/08 07:26:46;;;;;;;7.63;3.47;;;22.10;99.90;;;;;;4880821;29;20136;-77
2023/07/08 07:29:16;;;;;;;7.80;3.42;;;22.20;99.90;;;;;;4882438;29;20112;-78
2023/07/08 07:31:41;;;;;;;4.05;3.25;;;22.20;99.90;;;;;;4882632;29;20060;-78
2023/07/08 07:34:08;;;;;;;6.65;3.90;;;22.30;99.90;;;;;;4882457;29;20583;-78
2023/07/08 07:36:34;;;;;;;5.60;3.28;;;22.40;99.90;;;;;;4899108;29;20477;-78
2023/07/08 07:39:00;;;;;;;7.38;3.42;;;22.60;99.90;;;;;;4882257;29;20064;-82
2023/07/08 07:41:26;;;;;;;9.05;3.67;;;22.60;99.90;;;;;;4882662;29;20099;-80
2023/07/08 07:43:51;;;;;;;4.50;3.03;;;22.90;99.90;;;;;;4882572;29;20068;-79
2023/07/08 07:46:17;;;;;;;8.30;3.67;;;22.90;99.90;;;;;;4899864;29;20676;-80
2023/07/08 07:48:43;;;;;;;6.57;3.90;;;23.00;99.90;;;;;;4882492;29;20067;-80
2023/07/08 07:51:10;;;;;;;8.32;3.55;;;23.00;99.90;;;;;;4882294;29;20395;-79
2023/07/08 07:53:37;;;;;;;11.50;2.97;;;23.20;99.90;;;;;;4899513;29;20060;-79
2023/07/08 07:56:04;;;;;;;6.93;3.50;;;23.20;99.90;;;;;;4899133;29;20060;-79
2023/07/08 07:58:30;;;;;;;6.03;3.38;;;23.20;99.90;;;;;;4898837;29;20477;-78
2023/07/08 08:00:56;;;;;;;4.60;3.53;;;23.30;99.90;;;;;;4899076;29;20535;-78
2023/07/08 08:03:22;;;;;;;7.93;3.40;;;23.40;99.90;;;;;;4881910;29;20053;-77
2023/07/08 08:05:49;;;;;;;5.13;3.50;;;23.60;99.90;;;;;;4882027;29;20064;-77
2023/07/08 08:08:15;;;;;;;4.88;3.28;;;23.60;99.90;;;;;;4898832;29;20055;-77
2023/07/08 08:10:42;;;;;;;5.65;3.10;;;23.70;99.90;;;;;;4898752;29;20048;-76
2023/07/08 08:13:08;;;;;;;5.65;3.60;;;23.80;99.90;;;;;;4898776;29;20052;-76
2023/07/08 08:15:34;;;;;;;10.20;3.75;;;23.80;99.90;;;;;;4898731;29;20060;-76
2023/07/08 08:18:00;;;;;;;5.55;3.50;;;23.80;99.90;;;;;;4881838;29;20052;-76
2023/07/08 08:20:26;;;;;;;5.50;3.15;;;23.80;99.90;;;;;;4898606;29;20052;-76
2023/07/08 08:22:52;;;;;;;8.43;3.90;;;24.00;99.90;;;;;;4881456;29;20131;-76
2023/07/08 08:25:19;;;;;;;10.32;3.75;;;23.90;99.90;;;;;;4898148;29;20119;-76
2023/07/08 08:27:45;;;;;;;4.47;3.45;;;24.10;99.90;;;;;;4881471;29;20049;-77
2023/07/08 08:30:12;;;;;;;7.93;3.45;;;24.00;99.90;;;;;;4881569;29;20075;-76
2023/07/08 08:32:38;;;;;;;6.50;3.67;;;24.10;99.90;;;;;;4898540;29;20464;-76
2023/07/08 08:35:04;;;;;;;8.30;3.72;;;24.10;99.90;;;;;;4898362;29;20112;-76
2023/07/08 08:37:30;;;;;;;4.32;3.45;;;24.10;99.90;;;;;;4881095;29;20060;-76
2023/07/08 08:39:56;;;;;;;9.98;3.60;;;24.20;99.90;;;;;;4865908;29;20059;-76
2023/07/08 08:42:27;;;;;;;10.63;3.70;;;24.20;99.90;;;;;;4898445;29;20501;-77
2023/07/08 08:44:53;;;;;;;5.78;3.45;;;24.30;99.90;;;;;;4896361;29;20063;-78
2023/07/08 08:47:27;;;;;;;9.30;3.13;;;24.50;99.90;;;;;;4897962;29;20439;-77
2023/07/08 08:50:20;;;;;;;5.80;3.67;;;24.50;99.90;;;;;;4880968;29;20124;-76
2023/07/08 08:52:46;;;;;;;11.35;3.67;;;24.50;99.90;;;;;;4880945;29;20471;-76
2023/07/08 08:55:14;;;;;;;5.45;3.42;;;24.60;99.90;;;;;;4881183;29;20139;-77
2023/07/08 08:58:05;;;;;;;6.45;3.20;;;24.90;99.90;;;;;;4881532;29;20085;-78
2023/07/08 09:00:54;;;;;;;11.10;3.70;;;25.10;99.90;;;;;;4865819;29;20089;-78
2023/07/08 09:03:45;;;;;;;6.43;3.38;;;25.00;99.90;;;;;;4897900;29;20120;-77
2023/07/08 09:06:24;;;;;;;6.68;3.58;;;25.20;99.90;;;;;;4898508;29;20104;-77
2023/07/08 09:08:52;;;;;;;5.50;3.55;;;25.30;99.90;;;;;;4898298;29;20102;-78
2023/07/08 09:11:42;;;;;;;8.43;3.55;;;25.20;99.90;;;;;;4881100;29;20196;-77
2023/07/08 09:14:29;;;;;;;5.65;3.35;;;25.30;99.90;;;;;;4880794;29;20128;-77
2023/07/08 09:17:27;;;;;;;8.10;3.60;;;25.40;99.90;;;;;;4880767;29;20112;-78
2023/07/08 09:20:17;;;;;;;4.60;3.53;;;25.30;99.90;;;;;;4880872;29;20056;-78
2023/07/08 09:22:51;;;;;;;4.22;3.20;;;25.50;99.90;;;;;;4897665;29;20048;-78
2023/07/08 09:25:34;;;;;;;7.93;3.13;;;25.70;99.90;;;;;;4880608;29;20480;-78
2023/07/08 09:28:00;;;;;;;7.18;3.40;;;25.80;99.90;;;;;;4897673;29;20064;-78
2023/07/08 09:30:28;;;;;;;8.25;3.17;;;25.90;99.90;;;;;;4881271;29;20057;-78
2023/07/08 09:32:54;;;;;;;5.47;2.90;;;25.90;99.90;;;;;;4880332;29;20057;-77
2023/07/08 09:35:28;;;;;;;5.03;3.22;;;25.90;99.90;;;;;;4897533;29;20450;-77
2023/07/08 09:37:55;;;;;;;7.68;3.13;;;26.10;99.90;;;;;;4897356;29;20056;-78
2023/07/08 09:40:32;;;;;;;7.32;3.80;;;26.30;99.90;;;;;;4897498;29;20057;-77
2023/07/08 09:43:26;;;;;;;4.53;3.20;;;26.20;99.90;;;;;;4897586;29;20044;-77
2023/07/08 09:45:58;;;;;;;10.43;3.40;;;26.40;99.90;;;;;;4897041;29;20045;-78
2023/07/08 09:48:27;;;;;;;6.88;3.65;;;26.40;99.60;;;;;;4880315;29;20633;-78
2023/07/08 09:50:55;;;;;;;3.65;3.15;;;26.30;99.90;;;;;;4897164;29;20060;-77
2023/07/08 09:53:21;;;;;;;5.25;3.30;;;26.50;99.90;;;;;;4880641;29;20862;-77
2023/07/08 09:55:49;;;;;;;3.42;2.90;;;26.60;99.90;;;;;;4897104;29;20052;-77
2023/07/08 09:58:27;;;;;;;9.07;3.78;;;26.60;99.80;;;;;;4864841;29;20060;-78
2023/07/08 10:01:00;;;;;;;8.18;4.10;;;26.80;99.40;;;;;;4880375;29;20091;-77
2023/07/08 10:03:33;;;;;;;5.72;3.30;;;26.90;99.40;;;;;;4897048;29;20056;-78
2023/07/08 10:06:05;;;;;;;6.97;3.80;;;26.90;99.10;;;;;;4896606;29;20111;-77
2023/07/08 10:08:42;;;;;;;6.90;3.38;;;27.00;99.70;;;;;;4871008;29;20057;-77
2023/07/08 10:11:32;;;;;;;5.00;3.35;;;27.10;99.50;;;;;;4870350;29;20174;-77
2023/07/08 10:14:05;;;;;;;5.95;3.22;;;27.10;99.30;;;;;;4887521;29;20040;-77
2023/07/08 10:16:33;;;;;;;6.78;4.22;;;27.10;99.00;;;;;;4888085;29;20055;-77
2023/07/08 10:18:59;;;;;;;5.85;3.38;;;27.10;99.80;;;;;;4885620;29;20140;-77
2023/07/08 10:21:48;;;;;;;8.85;3.15;;;27.30;99.50;;;;;;4870388;29;20489;-77
2023/07/08 10:24:37;;;;;;;4.25;3.33;;;27.30;98.60;;;;;;4869525;29;20416;-77
2023/07/08 10:27:30;;;;;;;7.60;3.30;;;27.30;99.20;;;;;;4869520;29;20503;-77
2023/07/08 10:30:22;;;;;;;5.13;3.22;;;27.40;98.50;;;;;;4871180;29;20460;-77
2023/07/08 10:33:13;;;;;;;5.70;3.45;;;27.60;98.90;;;;;;4896585;29;20044;-77
2023/07/08 10:35:49;;;;;;;6.20;3.65;;;27.60;99.20;;;;;;4879667;29;20056;-77
2023/07/08 10:38:45;;;;;;;5.38;3.15;;;27.70;98.90;;;;;;4876570;29;20412;-77
2023/07/08 10:41:32;;;;;;;5.32;3.50;;;27.70;98.60;;;;;;4893788;29;20056;-77
2023/07/08 10:44:11;;;;;;;10.43;3.70;;;27.80;97.70;;;;;;4898206;29;20159;-80
2023/07/08 10:46:55;;;;;;;4.93;3.15;;;27.90;97.80;;;;;;4915710;29;20457;-81
2023/07/08 10:49:33;;;;;;;6.07;3.40;;;27.80;97.30;;;;;;4898030;29;20104;-81
2023/07/08 10:52:10;;;;;;;6.70;3.13;;;27.90;97.40;;;;;;4874490;29;20065;-81
2023/07/08 10:55:17;;;;;;;5.53;3.13;;;28.00;97.70;;;;;;4873058;29;20056;-82
2023/07/08 10:58:27;;;;;;;8.98;3.45;;;28.20;96.50;;;;;;4808300;29;20410;-83
2023/07/08 11:01:20;;;;;;;5.55;3.70;;;28.30;97.10;;;;;;4880530;29;20061;-83
2023/07/08 11:03:54;;;;;;;5.38;3.40;;;28.20;97.60;;;;;;4900435;29;20497;-81
2023/07/08 11:06:25;;;;;;;4.28;3.40;;;28.30;98.30;;;;;;4900518;29;20057;-82
2023/07/08 11:08:59;;;;;;;6.65;3.38;;;28.30;96.10;;;;;;4888725;29;20064;-82
2023/07/08 11:11:34;;;;;;;6.03;3.80;;;28.30;96.10;;;;;;4881693;29;20052;-82
2023/07/08 11:14:13;;;;;;;8.05;3.72;;;28.50;96.10;;;;;;4864552;29;20061;-82
2023/07/08 11:17:16;;;;;;;10.43;3.53;;;28.50;96.20;;;;;;4864492;29;20061;-82
2023/07/08 11:19:59;;;;;;;9.07;3.55;;;28.50;95.70;;;;;;4845625;29;20505;-82
2023/07/08 11:22:27;;;;;;;8.50;4.43;;;28.60;96.50;;;;;;4882897;29;20064;-82
2023/07/08 11:24:55;;;;;;;7.43;3.10;;;28.60;96.80;;;;;;4899853;29;20049;-82
2023/07/08 11:27:32;;;;;;;4.07;3.30;;;28.80;97.10;;;;;;4899517;29;20053;-82
2023/07/08 11:30:17;;;;;;;6.55;3.60;;;28.80;96.70;;;;;;4899900;29;20091;-82
2023/07/08 11:32:47;;;;;;;7.78;3.40;;;29.00;95.90;;;;;;4882783;29;20120;-82
2023/07/08 11:35:19;;;;;;;7.03;3.70;;;28.80;96.00;;;;;;4867308;29;20048;-83
2023/07/08 11:37:45;;;;;;;4.88;3.50;;;28.90;95.90;;;;;;4899424;29;20103;-77
2023/07/08 11:40:22;;;;;;;8.15;3.78;;;29.10;96.50;;;;;;4899350;29;20075;-77
2023/07/08 11:43:00;;;;;;;6.22;3.63;;;29.10;96.70;;;;;;4898835;29;20045;-78
2023/07/08 11:45:30;;;;;;;6.70;3.70;;;29.00;95.00;;;;;;4898925;29;20052;-81
2023/07/08 11:48:11;;;;;;;8.07;3.60;;;29.10;95.40;;;;;;4882752;29;20120;-78
2023/07/08 11:50:39;;;;;;;;;;;29.20;96.10;;;;;;4900123;29;20056;-77
2023/07/08 11:53:11;;;;;;;5.28;3.90;;;29.20;95.00;;;;;;4899393;29;20470;-78
2023/07/08 11:55:47;;;;;;;8.00;3.92;;;29.20;95.60;;;;;;4899160;29;20465;-77
2023/07/08 11:58:25;;;;;;;6.57;3.45;;;29.10;95.80;;;;;;4899151;29;20061;-77
2023/07/08 12:00:59;;;;;;;6.28;3.85;;;29.10;95.50;;;;;;4899489;29;20071;-77
2023/07/08 12:03:34;;;;;;;7.20;4.07;;;29.20;96.60;;;;;;4882300;29;20065;-78
2023/07/08 12:06:06;;;;;;;9.00;4.07;;;29.20;95.90;;;;;;4899328;29;20111;-77
2023/07/08 12:08:39;;;;;;;11.55;4.15;;;29.30;96.30;;;;;;4882442;29;20072;-78
2023/07/08 12:11:11;;;;;;;7.20;3.97;;;29.30;96.00;;;;;;4898716;29;20120;-77
2023/07/08 12:13:37;;;;;;;6.95;3.85;;;29.40;95.70;;;;;;4880947;29;20489;-77
2023/07/08 12:16:03;;;;;;;6.63;4.38;;;29.50;95.90;;;;;;4898728;29;20051;-77
2023/07/08 12:18:34;;;;;;;7.47;4.28;;;29.50;95.60;;;;;;4881811;29;20064;-77
2023/07/08 12:21:01;;;;;;;;;;;29.60;95.00;;;;;;4899026;29;20515;-77
2023/07/08 12:23:28;;;;;;;6.80;4.03;;;29.60;94.40;;;;;;4881952;29;19923;-78
2023/07/08 12:25:55;;;;;;;5.82;4.13;;;29.60;95.10;;;;;;4898287;29;20055;-77
2023/07/08 12:28:22;;;;;;;6.50;3.78;;;29.60;95.60;;;;;;4898623;29;20056;-77
2023/07/08 12:30:49;;;;;;;9.20;4.10;;;29.60;95.50;;;;;;4898948;29;20048;-77
2023/07/08 12:33:30;;;;;;;6.63;4.00;;;29.70;95.80;;;;;;4898201;29;20084;-77
2023/07/08 12:35:56;;;;;;;7.70;4.53;;;29.80;94.70;;;;;;4898733;29;20056;-77
2023/07/08 12:38:38;;;;;;;7.93;4.15;;;29.90;95.00;;;;;;4898434;29;20147;-77
2023/07/08 12:41:15;;;;;;;;;;;29.80;94.20;;;;;;4898720;29;20059;-77
2023/07/08 12:43:41;;;;;;;9.82;4.72;;;29.90;95.70;;;;;;4881069;29;19919;-77
2023/07/08 12:46:09;;;;;;;9.45;4.22;;;30.00;95.20;;;;;;4881453;29;20058;-77
2023/07/08 12:48:36;;;;;;;8.88;4.03;;;30.10;95.30;;;;;;4898741;29;20067;-77
2023/07/08 12:51:03;;;;;;;8.60;4.47;;;30.10;94.20;;;;;;4881623;29;20081;-77
2023/07/08 12:53:29;;;;;;;9.27;4.75;;;30.10;94.10;;;;;;4881947;29;20048;-78
2023/07/08 12:55:58;;;;;;;8.23;4.47;;;30.20;94.20;;;;;;4881424;29;20052;-77
2023/07/08 12:58:28;;;;;;;6.38;4.65;;;30.20;93.20;;;;;;4898403;29;20052;-77
2023/07/08 13:00:59;;;;;;;7.70;5.20;;;30.30;94.20;;;;;;4898094;29;20500;-77